Latest Weather Observations for Gingin Airport

IDW60801

Issued at 6:02 pm WST Tuesday 30 June 2015 (issued every 30 minutes, with the page automatically refreshed every 10 minutes)

About weather observations | Map of weather stations | Latest weather observations for WA | Other Formats
Station Details ID: 009178 Name: GINGIN AERO Lat: -31.46 Lon: 115.86 Height: 73.0 m
Data from the previous 72 hours. | See also: Recent months at Gingin Airport
Date/Time
WST
Temp
°C
App
Temp
°C
Dew
Point
Rel
Hum
%
Delta-T
°C
Wind Press
QNH
hPa
Press
MSL
hPa
Rain
since 9 am
mm
Dir
 
Spd
km/h
Gust
km/h
Spd
kts
Gust
kts
30/06:00pm 15.4 14.9 10.8 74 2.4 W 4 6 2 3 1022.6 1022.6 0.0
30/05:30pm 16.1 16.2 10.2 68 3.1 CALM 0 7 0 4 1021.9 1021.9 0.0
30/05:00pm 18.7 17.7 11.0 61 4.2 WSW 7 9 4 5 1022.3 1022.3 0.0
30/04:30pm 20.0 17.7 10.4 54 5.2 WSW 13 19 7 10 1022.2 1022.2 0.0
30/04:00pm 20.9 17.9 9.2 47 6.2 WSW 15 20 8 11 1022.0 1022.0 0.0
30/03:30pm 21.7 19.1 6.0 36 7.9 NW 9 15 5 8 1021.8 1021.8 0.0
30/03:00pm 22.7 18.2 4.2 30 9.0 NW 17 24 9 13 1022.0 1022.0 0.0
30/02:30pm 22.6 17.9 3.2 28 9.3 NNW 17 24 9 13 1021.8 1021.8 0.0
30/02:00pm 22.7 17.5 3.8 29 9.2 NNW 20 30 11 16 1021.6 1021.6 0.0
30/01:30pm 22.1 16.9 3.7 30 8.9 NNW 20 30 11 16 1021.4 1021.4 0.0
30/01:00pm 22.1 17.1 3.7 30 8.9 NNW 19 28 10 15 1021.7 1021.7 0.0
30/12:30pm 21.6 16.0 3.3 30 8.8 N 22 30 12 16 1022.0 1022.0 0.0
30/12:00pm 21.2 16.8 4.7 34 8.1 N 17 22 9 12 1022.8 1022.8 0.0
30/11:30am 19.8 15.4 4.7 37 7.3 NNE 17 26 9 14 1023.4 1023.4 0.0
30/11:00am 18.6 13.8 4.4 39 6.8 NNE 19 24 10 13 1023.8 1023.8 0.0
30/10:30am 18.1 13.0 4.3 40 6.6 NNE 20 28 11 15 1024.0 1024.0 0.0
30/10:00am 17.2 11.4 4.2 42 6.1 N 24 33 13 18 1024.2 1024.2 0.0
30/09:30am 16.2 11.4 4.6 46 5.4 NNE 19 26 10 14 1024.3 1024.3 0.0
30/09:00am 14.5 10.9 4.8 52 4.5 NNE 13 19 7 10 1024.1 1024.1 0.0
30/08:30am 12.7 9.0 4.7 58 3.7 NNE 13 17 7 9 1024.0 1024.0 0.0
30/08:00am 11.9 8.3 5.1 63 3.1 NNE 13 19 7 10 1023.4 1023.4 0.0
30/07:30am 9.4 5.9 5.6 77 1.7 ENE 13 17 7 9 1023.2 1023.2 0.0
30/07:00am 8.0 5.7 5.8 86 1.0 ENE 7 9 4 5 1023.6 1023.6 0.0
30/06:30am 5.8 2.7 5.4 97 0.2 ENE 11 13 6 7 1023.4 1023.4 0.0
30/06:00am 6.4 5.0 5.5 94 0.4 ENE 2 6 1 3 1023.4 1023.4 0.0
30/05:30am 7.7 5.4 5.0 83 1.2 ENE 6 7 3 4 1023.3 1023.3 0.0
30/05:00am 8.5 5.9 6.0 84 1.1 ENE 9 11 5 6 1023.0 1023.0 0.0
30/04:30am 5.7 2.6 5.4 98 0.1 ENE 11 15 6 8 1023.1 1023.1 0.0
30/04:00am 6.1 4.7 5.7 97 0.2 ENE 2 7 1 4 1023.1 1023.1 0.0
30/03:30am 6.0 2.9 5.7 98 0.1 ENE 11 13 6 7 1022.6 1022.6 0.0
30/03:00am 4.4 1.5 4.4 100 0.0 ENE 9 13 5 7 1022.8 1022.8 0.0
30/02:30am 4.4 1.8 4.4 100 0.0 ENE 7 9 4 5 1023.0 1023.0 0.0
30/02:00am 4.3 3.0 4.3 100 0.0 CALM 0 0 0 0 1022.8 1022.8 0.0
30/01:30am 4.6 3.0 4.5 99 0.0 ENE 2 7 1 4 1022.9 1022.9 0.0
30/01:00am 5.0 3.9 4.9 99 0.0 CALM 0 0 0 0 1022.9 1022.9 0.0
30/12:30am 5.3 4.2 5.2 99 0.0 CALM 0 0 0 0 1022.9 1022.9 0.0
30/12:00am 5.8 3.4 5.4 97 0.2 ENE 7 9 4 5 1023.1 1023.1 0.0
 
Date/Time
WST
Temp
°C
App
Temp
°C
Dew
Point
Rel
Hum
%
Delta-T
°C
Wind Press
QNH
hPa
Press
MSL
hPa
Rain
since 9 am
mm
Dir
 
Spd
km/h
Gust
km/h
Spd
kts
Gust
kts
29/11:30pm 6.1 4.6 5.2 94 0.4 ENE 2 6 1 3 1023.5 1023.5 0.0
29/11:00pm 7.0 4.9 6.7 98 0.1 ENE 7 9 4 5 1023.4 1023.4 0.0
29/10:30pm 6.8 5.9 5.9 94 0.4 CALM 0 0 0 0 1023.4 1023.4 0.0
29/10:00pm 6.7 5.6 5.2 90 0.7 CALM 0 0 0 0 1023.8 1023.8 0.0
29/09:30pm 7.4 6.4 5.7 89 0.8 CALM 0 0 0 0 1023.8 1023.8 0.0
29/09:00pm 8.3 6.7 6.4 88 0.9 S 4 6 2 3 1023.6 1023.6 0.0
29/08:30pm 7.9 6.1 5.2 83 1.2 S 4 7 2 4 1023.3 1023.3 0.0
29/08:00pm 9.9 8.6 6.2 78 1.7 S 2 6 1 3 1023.4 1023.4 0.0
29/07:30pm 10.7 8.7 6.1 73 2.1 S 6 6 3 3 1023.4 1023.4 0.0
29/07:00pm 13.8 11.8 6.9 63 3.3 SSW 7 9 4 5 1023.5 1023.5 0.0
29/06:30pm 14.7 12.9 7.3 61 3.7 WNW 6 9 3 5 1023.4 1023.4 0.0
29/06:00pm 14.6 12.9 7.6 63 3.5 N 6 7 3 4 1023.1 1023.1 0.0
29/05:30pm 17.2 15.2 7.3 52 5.0 N 7 11 4 6 1022.8 1022.8 0.0
29/05:00pm 20.7 18.9 7.3 42 6.9 N 6 7 3 4 1022.8 1022.8 0.0
29/04:30pm 21.9 19.1 5.3 34 8.3 N 9 11 5 6 1022.7 1022.7 0.0
29/04:00pm 22.8 19.8 4.3 30 9.1 N 9 13 5 7 1022.7 1022.7 0.0
29/03:30pm 23.0 19.6 4.0 29 9.3 N 11 15 6 8 1022.8 1022.8 0.0
29/03:00pm 23.3 20.1 5.2 31 9.1 NNW 11 20 6 11 1022.8 1022.8 0.0
29/02:30pm 22.8 18.7 4.3 30 9.1 N 15 20 8 11 1023.0 1023.0 0.0
29/02:00pm 22.5 17.9 3.6 29 9.1 N 17 26 9 14 1023.3 1023.3 0.0
29/01:30pm 22.2 18.0 3.8 30 8.9 N 15 20 8 11 1023.5 1023.5 0.0
29/01:00pm 22.2 17.7 4.3 31 8.7 N 17 22 9 12 1023.8 1023.8 0.0
29/12:30pm 21.7 17.7 4.7 33 8.4 N 15 22 8 12 1024.2 1024.2 0.0
29/12:00pm 21.3 17.6 6.4 38 7.5 NNE 15 20 8 11 1024.6 1024.6 0.0
29/11:30am 19.8 15.4 4.7 37 7.3 NNE 17 22 9 12 1025.0 1025.0 0.0
29/11:00am 19.1 14.5 5.6 41 6.6 NNE 19 24 10 13 1025.4 1025.4 0.0
29/10:30am 17.7 12.4 5.0 43 6.1 N 22 30 12 16 1025.7 1025.7 0.0
29/10:00am 16.9 11.5 4.6 44 5.8 N 22 33 12 18 1025.8 1025.8 0.0
29/09:30am 15.9 10.9 4.6 47 5.3 N 20 28 11 15 1025.9 1025.9 0.0
29/09:00am 14.6 10.2 4.6 51 4.6 NNE 17 24 9 13 1025.9 1025.9 0.0
29/08:30am 13.1 8.7 4.5 56 4.0 NNE 17 22 9 12 1025.7 1025.7 0.0
29/08:00am 11.4 7.4 5.1 65 2.9 NNE 15 20 8 11 1025.5 1025.5 0.0
29/07:30am 7.5 5.2 5.5 87 0.9 N 7 11 4 6 1025.4 1025.4 0.0
29/07:00am 6.5 4.3 3.3 80 1.3 NE 4 9 2 5 1025.1 1025.1 0.0
29/06:30am 6.5 4.0 4.0 84 1.1 NE 6 9 3 5 1024.9 1024.9 0.0
29/06:00am 7.8 6.5 4.2 78 1.6 CALM 0 6 0 3 1024.9 1024.9 0.0
29/05:30am 9.7 7.4 4.7 71 2.2 NE 6 9 3 5 1024.9 1024.9 0.0
29/05:00am 10.4 7.7 5.6 72 2.2 NE 9 13 5 7 1024.8 1024.8 0.0
29/04:30am 9.6 6.1 5.6 76 1.8 NE 13 19 7 10 1024.7 1024.7 0.0
29/04:00am 9.7 6.4 6.2 79 1.6 ENE 13 15 7 8 1024.7 1024.7 0.0
29/03:30am 9.7 6.3 6.1 78 1.7 E 13 17 7 9 1024.8 1024.8 0.0
29/03:00am 10.5 6.4 6.3 75 2.0 E 17 19 9 10 1025.0 1025.0 0.0
29/02:30am 11.1 6.7 6.6 74 2.1 E 19 22 10 12 1025.1 1025.1 0.0
29/02:00am 11.0 7.9 7.3 78 1.8 E 13 17 7 9 1025.3 1025.3 0.0
29/01:30am 10.2 6.9 6.5 78 1.7 ENE 13 17 7 9 1025.3 1025.3 0.0
29/01:00am 10.1 7.9 6.4 78 1.7 ENE 7 9 4 5 1025.5 1025.5 0.0
29/12:30am 11.0 7.8 6.9 76 2.0 ENE 13 15 7 8 1025.6 1025.6 0.0
29/12:00am 11.0 8.6 7.1 77 1.9 ENE 9 13 5 7 1025.9 1025.9 0.0
 
Date/Time
WST
Temp
°C
App
Temp
°C
Dew
Point
Rel
Hum
%
Delta-T
°C
Wind Press
QNH
hPa
Press
MSL
hPa
Rain
since 9 am
mm
Dir
 
Spd
km/h
Gust
km/h
Spd
kts
Gust
kts
28/11:30pm 10.8 8.8 7.3 79 1.7 E 7 11 4 6 1025.9 1025.9 0.0
28/11:00pm 11.3 7.8 7.2 76 2.0 ENE 15 17 8 9 1025.9 1025.9 0.0
28/10:30pm 11.2 7.7 7.1 76 2.0 ENE 15 19 8 10 1026.1 1026.1 0.0
28/10:00pm 10.1 6.8 6.6 79 1.6 ENE 13 17 7 9 1026.2 1026.2 0.0
28/09:30pm 7.4 4.9 4.5 82 1.3 ESE 7 9 4 5 1026.4 1026.4 0.0
28/09:00pm 8.1 5.6 4.5 78 1.6 ESE 7 9 4 5 1026.6 1026.6 0.0
28/08:30pm 10.4 7.7 5.6 72 2.2 ESE 9 11 5 6 1026.6 1026.6 0.0
28/08:00pm 11.0 7.9 5.7 70 2.4 ESE 11 13 6 7 1026.5 1026.5 0.0
28/07:30pm 11.3 8.6 5.6 68 2.6 ESE 9 11 5 6 1026.5 1026.5 0.0
28/07:00pm 11.8 8.7 5.7 66 2.8 ESE 11 13 6 7 1026.5 1026.5 0.0
28/06:30pm 12.5 9.4 5.7 63 3.2 ESE 11 13 6 7 1026.3 1026.3 0.0
28/06:00pm 14.0 10.9 5.6 57 4.0 ESE 11 13 6 7 1026.1 1026.1 0.0
28/05:30pm 15.9 12.5 5.8 51 4.9 ESE 13 15 7 8 1025.9 1025.9 0.0
28/05:00pm 18.1 14.7 6.0 45 5.9 E 13 15 7 8 1025.8 1025.8 0.0
28/04:30pm 19.7 15.8 5.4 39 7.0 E 15 19 8 10 1025.8 1025.8 0.0
28/04:00pm 20.2 15.9 5.4 38 7.3 ENE 17 24 9 13 1025.9 1025.9 0.0
28/03:30pm 20.6 15.9 5.0 36 7.7 NE 19 28 10 15 1026.1 1026.1 0.0
28/03:00pm 20.0 16.4 6.7 42 6.7 E 15 20 8 11 1026.2 1026.2 0.0
28/02:30pm 20.0 15.8 7.4 44 6.5 ENE 19 26 10 14 1026.2 1026.2 0.0
28/02:00pm 19.7 15.2 6.8 43 6.5 ENE 20 28 11 15 1026.2 1026.2 0.0
28/01:30pm 19.4 14.6 7.2 45 6.2 NE 22 32 12 17 1026.4 1026.4 0.0
28/01:00pm 19.3 14.5 7.4 46 6.0 ENE 22 30 12 16 1026.6 1026.6 0.0
28/12:30pm 19.0 13.9 7.8 48 5.7 NE 24 32 13 17 1027.2 1027.2 0.0
28/12:00pm 18.2 12.6 7.0 48 5.6 NE 26 32 14 17 1028.0 1028.0 0.0
28/11:30am 17.9 12.4 7.6 51 5.2 NE 26 35 14 19 1028.6 1028.6 0.0
28/11:00am 16.9 11.0 7.3 53 4.8 NE 28 37 15 20 1029.1 1029.1 0.0
28/10:30am 16.2 10.6 7.2 55 4.5 NE 26 37 14 20 1029.2 1029.2 0.0
28/10:00am 15.1 9.4 6.9 58 4.0 ENE 26 35 14 19 1029.3 1029.3 0.0
28/09:30am 14.1 9.6 6.9 62 3.5 ENE 20 30 11 16 1029.2 1029.2 0.0
28/09:00am 13.1 9.7 7.8 70 2.6 E 15 20 8 11 1029.2 1029.2 0.0
28/08:30am 11.7 7.9 7.6 76 2.0 ENE 17 20 9 11 1029.2 1029.2 0.0
28/08:00am 10.4 6.2 7.5 82 1.4 ENE 19 22 10 12 1029.2 1029.2 0.0
28/07:30am 9.6 5.8 7.5 87 1.0 E 17 22 9 12 1028.9 1028.9 0.0
28/07:00am 9.5 5.7 7.4 87 1.0 E 17 24 9 13 1028.6 1028.6 0.0
28/06:30am 9.8 5.4 7.4 85 1.1 ENE 20 28 11 15 1028.4 1028.4 0.0
28/06:00am 10.0 5.6 7.6 85 1.1 ENE 20 26 11 14 1028.3 1028.3 0.0
28/05:30am 10.4 6.2 7.6 83 1.3 ENE 19 24 10 13 1028.3 1028.3 0.0
28/05:00am 10.4 6.6 7.5 82 1.4 ENE 17 24 9 13 1028.3 1028.3 0.0
28/04:30am 10.5 6.3 7.4 81 1.5 E 19 24 10 13 1028.3 1028.3 0.0
28/04:00am 10.7 7.2 7.4 80 1.6 ENE 15 22 8 12 1028.4 1028.4 0.0
28/03:30am 11.0 6.8 7.3 78 1.8 ENE 19 24 10 13 1028.4 1028.4 0.0
28/03:00am 11.2 7.1 7.7 79 1.7 ENE 19 26 10 14 1028.6 1028.6 0.0
28/02:30am 11.3 7.2 7.8 79 1.7 ENE 19 28 10 15 1028.6 1028.6 0.0
28/02:00am 11.1 7.5 8.5 84 1.3 ENE 17 22 9 12 1028.7 1028.7 0.0
28/01:30am 10.4 7.8 9.5 94 0.5 E 13 19 7 10 1028.7 1028.7 0.0
28/01:00am 8.0 5.1 8.0 100 0.0 ENE 13 17 7 9 1028.8 1028.8 0.0
28/12:30am 8.1 6.0 8.1 100 0.0 ESE 9 11 5 6 1029.0 1029.0 0.0
28/12:00am 8.0 5.1 8.0 100 0.0 SE 13 15 7 8 1029.1 1029.1 0.0
 
Date/Time
WST
Temp
°C
App
Temp
°C
Dew
Point
Rel
Hum
%
Delta-T
°C
Wind Press
QNH
hPa
Press
MSL
hPa
Rain
since 9 am
mm
Dir
 
Spd
km/h
Gust
km/h
Spd
kts
Gust
kts
27/11:30pm 8.0 5.1 8.0 100 0.0 ESE 13 15 7 8 1029.3 1029.3 0.0
27/11:00pm 7.9 4.9 7.9 100 0.0 SE 13 15 7 8 1029.4 1029.4 0.0
27/10:30pm 7.6 5.0 7.6 100 0.0 SE 11 15 6 8 1029.4 1029.4 0.0
27/10:00pm 7.1 4.3 7.1 100 0.0 SE 11 11 6 6 1029.3 1029.3 0.0
27/09:30pm 7.5 5.8 7.5 100 0.0 SE 6 7 3 4 1029.3 1029.3 0.0
27/09:00pm 9.1 7.5 8.8 98 0.1 SE 7 9 4 5 1029.2 1029.2 0.0
27/08:30pm 10.4 8.2 9.3 93 0.5 SE 11 13 6 7 1029.2 1029.2 0.0
27/08:00pm 11.2 8.7 9.6 90 0.8 SSE 13 17 7 9 1029.1 1029.1 0.0
27/07:30pm 11.8 9.2 9.5 86 1.2 SSE 13 17 7 9 1029.1 1029.1 0.0
27/07:00pm 12.6 10.1 9.6 82 1.5 SE 13 17 7 9 1029.0 1029.0 0.0
27/06:30pm 13.3 10.7 9.5 78 1.9 SE 13 15 7 8 1028.7 1028.7 0.0

Other Formats:

Comma delimited format used in spreadsheet applications
http://www.bom.gov.au/fwo/IDW60801/IDW60801.95612.axf

JavaScript Object Notation format (JSON) in row-major order
http://www.bom.gov.au/fwo/IDW60801/IDW60801.95612.json